Time;durP1;ratioP1;P1;durP2;ratioP2;P2;SDS_P1;SDS_P2;PMS_P1;PMS_P2;Temp;Humidity;BMP_temperature;BMP_pressure;BME280_temperature;BME280_humidity;BME280_pressure;Samples;Min_cycle;Max_cycle;Signal;HPM_P1;HPM_P2
2022/04/09 00:01:25;;;;;;;12.32;3.70;;;4.20;83.40;;;;;;5011340;28;20476;-73
2022/04/09 00:03:51;;;;;;;13.18;4.30;;;4.20;83.50;;;;;;5010722;28;20136;-73
2022/04/09 00:06:16;;;;;;;12.80;4.10;;;4.20;83.50;;;;;;5014643;28;20037;-73
2022/04/09 00:08:42;;;;;;;16.05;4.90;;;4.10;83.60;;;;;;5013104;28;20038;-74
2022/04/09 00:11:08;;;;;;;14.10;4.30;;;4.10;83.70;;;;;;5011564;28;20038;-73
2022/04/09 00:13:34;;;;;;;12.85;5.55;;;4.10;83.70;;;;;;5001118;28;20108;-73
2022/04/09 00:16:00;;;;;;;16.17;5.38;;;4.10;83.80;;;;;;5016980;28;20049;-73
2022/04/09 00:18:26;;;;;;;12.57;5.18;;;4.10;83.80;;;;;;5017504;28;20043;-73
2022/04/09 00:20:52;;;;;;;14.25;5.72;;;4.10;83.70;;;;;;5015850;28;20053;-75
2022/04/09 00:23:18;;;;;;;14.43;5.30;;;4.10;83.70;;;;;;5011762;28;20041;-73
2022/04/09 00:25:45;;;;;;;18.42;7.13;;;4.00;83.90;;;;;;5016327;28;20114;-75
2022/04/09 00:28:11;;;;;;;15.57;8.77;;;4.10;84.00;;;;;;5001823;28;20025;-74
2022/04/09 00:30:36;;;;;;;20.90;10.90;;;4.00;84.10;;;;;;5019537;28;20049;-73
2022/04/09 00:33:02;;;;;;;17.95;11.32;;;4.00;84.00;;;;;;5002077;28;20045;-73
2022/04/09 00:35:28;;;;;;;18.08;10.93;;;4.00;84.00;;;;;;5014871;28;20417;-74
2022/04/09 00:37:54;;;;;;;22.65;11.82;;;4.00;84.00;;;;;;5001580;28;20476;-72
2022/04/09 00:40:24;;;;;;;21.40;11.80;;;4.00;84.00;;;;;;4997700;28;20033;-75
2022/04/09 00:42:50;;;;;;;17.90;10.85;;;3.90;84.00;;;;;;5008916;28;20066;-75
2022/04/09 00:45:16;;;;;;;18.40;10.40;;;3.90;84.00;;;;;;5016100;28;20080;-74
2022/04/09 00:47:42;;;;;;;18.85;9.75;;;3.90;84.00;;;;;;5020065;28;20048;-72
2022/04/09 00:50:10;;;;;;;18.73;9.07;;;3.90;84.00;;;;;;5018840;28;20034;-74
2022/04/09 00:53:03;;;;;;;18.17;9.15;;;3.90;84.00;;;;;;5018926;28;20041;-75
2022/04/09 00:58:15;;;;;;;16.90;8.23;;;3.80;84.00;;;;;;5015004;28;20081;-72
2022/04/09 01:00:42;;;;;;;19.95;8.73;;;3.80;84.10;;;;;;5018785;28;20056;-74
2022/04/09 01:03:11;;;;;;;18.33;7.90;;;3.80;84.10;;;;;;5027906;28;20047;-76
2022/04/09 01:05:37;;;;;;;14.10;7.43;;;3.70;84.10;;;;;;5013423;28;20057;-74
2022/04/09 01:08:04;;;;;;;17.45;7.90;;;3.70;84.20;;;;;;5018335;28;20052;-73
2022/04/09 01:10:30;;;;;;;17.05;7.20;;;3.70;84.20;;;;;;5000458;28;20475;-74
2022/04/09 01:12:56;;;;;;;17.45;6.35;;;3.60;84.20;;;;;;5018134;28;20564;-73
2022/04/09 01:15:21;;;;;;;17.98;7.10;;;3.60;84.30;;;;;;5013965;28;20501;-73
2022/04/09 01:17:47;;;;;;;16.70;7.78;;;3.60;84.30;;;;;;5019149;28;20536;-73
2022/04/09 01:20:17;;;;;;;19.25;8.13;;;3.60;84.40;;;;;;5015769;28;20544;-73
2022/04/09 01:22:43;;;;;;;18.77;8.32;;;3.60;84.60;;;;;;5017225;28;20044;-72
2022/04/09 01:25:09;;;;;;;21.52;10.35;;;3.60;84.60;;;;;;5015938;28;20041;-75
2022/04/09 01:27:35;;;;;;;21.02;9.75;;;3.60;84.70;;;;;;5024012;28;20033;-74
2022/04/09 01:30:01;;;;;;;21.95;11.10;;;3.60;84.70;;;;;;5017949;28;20065;-73
2022/04/09 01:32:27;;;;;;;23.77;9.90;;;3.60;84.70;;;;;;5018785;28;20041;-74
2022/04/09 01:34:52;;;;;;;24.58;9.98;;;3.60;84.80;;;;;;5016853;28;20339;-74
2022/04/09 01:37:18;;;;;;;22.30;10.25;;;3.60;84.80;;;;;;5016117;28;20525;-73
2022/04/09 01:39:44;;;;;;;22.88;10.05;;;3.50;84.90;;;;;;5018160;28;20117;-74
2022/04/09 01:42:10;;;;;;;21.90;10.02;;;3.60;85.00;;;;;;5018308;28;20037;-74
2022/04/09 01:44:36;;;;;;;24.75;10.13;;;3.50;84.90;;;;;;5017128;28;20092;-73
2022/04/09 01:47:03;;;;;;;24.00;9.82;;;3.50;84.90;;;;;;5017318;28;20542;-74
2022/04/09 01:49:29;;;;;;;21.48;9.30;;;3.50;84.80;;;;;;5017824;28;20037;-73
2022/04/09 01:51:55;;;;;;;22.83;8.43;;;3.60;84.90;;;;;;5017299;28;20041;-73
2022/04/09 01:54:20;;;;;;;20.65;8.68;;;3.50;84.90;;;;;;5016295;28;20048;-74
2022/04/09 01:56:46;;;;;;;24.05;9.80;;;3.50;84.90;;;;;;5015673;28;20037;-75
2022/04/09 01:59:12;;;;;;;21.52;8.95;;;3.50;84.90;;;;;;5015053;28;20194;-74
2022/04/09 02:01:37;;;;;;;16.73;9.45;;;3.50;84.90;;;;;;5011977;28;20042;-73
2022/04/09 02:04:03;;;;;;;21.73;9.98;;;3.50;85.00;;;;;;5016310;28;20420;-73
2022/04/09 02:06:30;;;;;;;22.08;10.32;;;3.40;85.10;;;;;;5013999;28;20025;-73
2022/04/09 02:08:56;;;;;;;21.13;11.13;;;3.50;85.20;;;;;;5017544;28;20485;-73
2022/04/09 02:11:23;;;;;;;24.25;11.15;;;3.40;85.20;;;;;;5017049;28;20037;-73
2022/04/09 02:13:50;;;;;;;26.92;13.93;;;3.50;85.30;;;;;;4998754;28;20080;-74
2022/04/09 02:16:16;;;;;;;26.25;15.13;;;3.50;85.30;;;;;;5014052;28;20380;-74
2022/04/09 02:18:43;;;;;;;26.20;13.77;;;3.50;85.30;;;;;;5017983;28;20520;-74
2022/04/09 02:21:10;;;;;;;28.05;14.98;;;3.40;85.30;;;;;;4996747;28;20235;-73
2022/04/09 02:23:36;;;;;;;26.98;13.80;;;3.50;85.30;;;;;;5010849;28;20288;-77
2022/04/09 02:26:02;;;;;;;25.35;13.05;;;3.50;85.30;;;;;;5014277;28;20041;-73
2022/04/09 02:28:28;;;;;;;22.48;11.93;;;3.40;85.40;;;;;;5014330;28;20037;-73
2022/04/09 02:30:54;;;;;;;25.48;11.80;;;3.40;85.40;;;;;;5017057;28;20045;-74
2022/04/09 02:33:20;;;;;;;23.15;12.35;;;3.40;85.50;;;;;;5017426;28;20111;-75
2022/04/09 02:35:45;;;;;;;28.75;15.02;;;3.40;85.40;;;;;;5013564;28;20037;-75
2022/04/09 02:38:11;;;;;;;29.77;17.92;;;3.40;85.40;;;;;;5016251;28;20038;-74
2022/04/09 02:40:37;;;;;;;31.88;19.48;;;3.40;85.40;;;;;;5016807;28;20029;-74
2022/04/09 02:43:03;;;;;;;30.80;20.88;;;3.50;85.50;;;;;;5016349;28;20037;-74
2022/04/09 02:45:29;;;;;;;36.55;21.02;;;3.40;85.40;;;;;;5014951;28;20045;-75
2022/04/09 02:47:54;;;;;;;36.72;19.52;;;3.40;85.50;;;;;;5016368;28;20060;-75
2022/04/09 02:50:21;;;;;;;30.58;18.88;;;3.40;85.50;;;;;;5016963;28;20042;-75
2022/04/09 02:52:47;;;;;;;29.38;19.13;;;3.50;85.60;;;;;;5018300;28;20438;-71
2022/04/09 02:55:13;;;;;;;35.20;18.95;;;3.50;85.70;;;;;;5012586;28;20134;-74
2022/04/09 02:57:39;;;;;;;28.23;16.25;;;3.50;85.70;;;;;;5016529;28;20033;-74
2022/04/09 03:00:08;;;;;;;32.78;15.13;;;3.60;85.70;;;;;;5015986;28;20461;-74
2022/04/09 03:02:37;;;;;;;26.13;12.30;;;3.60;85.70;;;;;;5015013;28;20059;-74
2022/04/09 03:05:04;;;;;;;26.40;11.23;;;3.60;85.70;;;;;;4997288;28;20057;-75
2022/04/09 03:07:31;;;;;;;24.60;10.38;;;3.60;85.70;;;;;;5016208;28;20064;-76
2022/04/09 03:09:56;;;;;;;22.55;9.98;;;3.70;85.70;;;;;;5016794;28;20059;-73
2022/04/09 03:12:22;;;;;;;17.42;8.27;;;3.80;85.50;;;;;;5018215;28;20033;-75
2022/04/09 03:14:48;;;;;;;16.77;7.85;;;3.80;85.40;;;;;;5020082;28;20125;-74
2022/04/09 03:17:13;;;;;;;19.33;8.18;;;3.70;85.20;;;;;;5014953;28;20100;-73
2022/04/09 03:19:39;;;;;;;21.33;8.75;;;3.70;85.30;;;;;;5015629;28;20064;-75
2022/04/09 03:22:05;;;;;;;20.63;8.85;;;3.70;85.30;;;;;;4997762;28;20084;-73
2022/04/09 03:24:31;;;;;;;23.42;10.23;;;3.70;85.20;;;;;;5015899;28;20049;-74
2022/04/09 03:26:56;;;;;;;19.42;8.70;;;3.70;85.10;;;;;;4996826;28;20072;-75
2022/04/09 03:29:22;;;;;;;20.80;8.85;;;3.60;85.20;;;;;;5015102;28;20076;-75
2022/04/09 03:31:48;;;;;;;26.08;9.23;;;3.60;85.10;;;;;;5013433;28;20445;-75
2022/04/09 03:34:13;;;;;;;25.08;9.93;;;3.60;85.30;;;;;;5012826;28;20513;-74
2022/04/09 03:36:39;;;;;;;19.27;8.75;;;3.60;85.30;;;;;;5010820;28;20357;-73
2022/04/09 03:39:05;;;;;;;29.88;8.77;;;3.60;85.00;;;;;;5008077;28;20045;-74
2022/04/09 03:41:31;;;;;;;25.40;8.85;;;3.60;85.00;;;;;;5011072;28;20034;-72
2022/04/09 03:43:56;;;;;;;24.15;9.40;;;3.60;85.20;;;;;;4997394;28;20271;-74
2022/04/09 03:46:22;;;;;;;22.58;8.85;;;3.60;85.10;;;;;;5013296;28;20033;-75
2022/04/09 03:48:48;;;;;;;22.27;8.82;;;3.60;85.20;;;;;;5014421;28;20080;-75
2022/04/09 03:51:13;;;;;;;17.77;9.15;;;3.60;84.80;;;;;;5013703;28;20128;-73
2022/04/09 03:53:39;;;;;;;24.38;10.07;;;3.60;84.90;;;;;;5010983;28;20034;-75
2022/04/09 03:56:05;;;;;;;22.70;9.75;;;3.60;84.80;;;;;;5011123;28;20034;-74
2022/04/09 03:58:31;;;;;;;26.48;10.10;;;3.60;84.80;;;;;;5014184;28;20330;-74
2022/04/09 04:00:57;;;;;;;20.08;8.57;;;3.60;84.90;;;;;;5016960;28;20033;-75
2022/04/09 04:03:23;;;;;;;24.67;8.93;;;3.60;84.80;;;;;;4994839;28;20053;-73
2022/04/09 04:05:48;;;;;;;18.90;7.88;;;3.50;84.80;;;;;;5012960;28;20057;-74
2022/04/09 04:08:14;;;;;;;19.13;7.78;;;3.50;84.90;;;;;;5016021;28;20609;-75
2022/04/09 04:10:40;;;;;;;17.77;7.53;;;3.50;84.90;;;;;;4993435;28;20033;-75
2022/04/09 04:13:06;;;;;;;20.23;9.10;;;3.50;84.80;;;;;;5013904;28;20396;-73
2022/04/09 04:15:33;;;;;;;19.30;7.75;;;3.50;84.70;;;;;;4997655;28;20057;-73
2022/04/09 04:17:59;;;;;;;21.15;7.53;;;3.50;84.70;;;;;;5016112;28;20036;-73
2022/04/09 04:20:24;;;;;;;19.83;7.25;;;3.40;84.60;;;;;;5016393;28;20385;-74
2022/04/09 04:22:53;;;;;;;18.27;6.97;;;3.40;84.70;;;;;;5015403;28;20345;-72
2022/04/09 04:25:20;;;;;;;15.60;6.85;;;3.40;84.70;;;;;;5015146;28;20488;-73
2022/04/09 04:27:48;;;;;;;21.17;5.80;;;3.40;84.90;;;;;;5018714;28;20026;-73
2022/04/09 04:30:15;;;;;;;20.27;6.45;;;3.40;84.80;;;;;;5019848;28;20052;-75
2022/04/09 04:32:42;;;;;;;19.48;6.47;;;3.30;84.90;;;;;;5019042;28;20167;-74
2022/04/09 04:35:08;;;;;;;16.10;6.55;;;3.30;84.90;;;;;;5018451;28;20052;-74
2022/04/09 04:37:37;;;;;;;17.40;5.65;;;3.30;84.80;;;;;;5020882;28;20430;-73
2022/04/09 04:40:04;;;;;;;19.42;6.55;;;3.30;84.90;;;;;;5013163;28;20050;-73
2022/04/09 04:42:30;;;;;;;19.08;5.78;;;3.30;85.00;;;;;;5020550;28;20244;-75
2022/04/09 04:44:55;;;;;;;17.25;6.03;;;3.30;84.90;;;;;;5019130;28;20793;-73
2022/04/09 04:47:21;;;;;;;15.55;6.18;;;3.20;84.90;;;;;;5017495;28;20033;-72
2022/04/09 04:49:46;;;;;;;17.42;6.57;;;3.20;84.90;;;;;;5019566;28;20033;-73
2022/04/09 04:52:12;;;;;;;16.02;5.75;;;3.20;84.90;;;;;;5019480;28;20133;-74
2022/04/09 04:54:38;;;;;;;19.90;6.78;;;3.10;85.00;;;;;;5018669;28;20038;-76
2022/04/09 04:57:03;;;;;;;20.83;6.38;;;3.10;85.00;;;;;;5018612;28;20199;-75
2022/04/09 04:59:29;;;;;;;17.77;6.50;;;3.10;85.10;;;;;;5019997;28;20087;-75
2022/04/09 05:01:55;;;;;;;19.88;6.38;;;3.20;85.10;;;;;;5019999;28;20215;-74
2022/04/09 05:04:20;;;;;;;18.55;7.13;;;3.10;85.10;;;;;;5018432;28;20045;-74
2022/04/09 05:06:46;;;;;;;17.77;7.20;;;3.10;85.20;;;;;;5017109;28;20554;-75
2022/04/09 05:09:13;;;;;;;22.67;7.82;;;3.10;85.10;;;;;;5018158;28;20591;-75
2022/04/09 05:11:39;;;;;;;16.92;7.07;;;3.10;85.10;;;;;;5020082;28;20473;-73
2022/04/09 05:14:05;;;;;;;18.30;7.03;;;3.10;85.10;;;;;;5018974;28;20038;-74
2022/04/09 05:16:30;;;;;;;15.85;7.20;;;3.10;85.10;;;;;;5019841;28;20044;-73
2022/04/09 05:18:56;;;;;;;20.42;8.00;;;3.10;85.20;;;;;;5019987;28;20076;-73
2022/04/09 05:21:22;;;;;;;18.55;8.27;;;3.10;85.20;;;;;;5031269;28;20832;-75
2022/04/09 05:23:48;;;;;;;17.17;8.73;;;3.10;85.20;;;;;;5030421;28;20045;-74
2022/04/09 05:26:13;;;;;;;18.75;8.05;;;3.10;85.20;;;;;;5031200;28;20033;-74
2022/04/09 05:28:39;;;;;;;15.73;8.88;;;3.20;85.10;;;;;;5018792;28;20041;-74
2022/04/09 05:31:06;;;;;;;20.30;9.48;;;3.20;85.10;;;;;;5001813;28;20452;-73
2022/04/09 05:33:32;;;;;;;19.38;9.20;;;3.30;85.10;;;;;;5018336;28;20049;-74
2022/04/09 05:35:58;;;;;;;22.05;10.32;;;3.30;84.90;;;;;;5017508;28;20087;-73
2022/04/09 05:38:23;;;;;;;22.30;10.70;;;3.30;84.80;;;;;;5011418;28;20465;-73
2022/04/09 05:40:49;;;;;;;22.35;10.63;;;3.40;84.70;;;;;;5015497;28;20030;-73
2022/04/09 05:43:15;;;;;;;21.48;10.95;;;3.40;84.60;;;;;;5011642;28;20477;-73
2022/04/09 05:45:40;;;;;;;22.98;10.65;;;3.50;84.50;;;;;;5012217;28;20037;-74
2022/04/09 05:48:06;;;;;;;22.40;10.57;;;3.50;84.50;;;;;;5015227;28;20461;-73
2022/04/09 05:50:32;;;;;;;21.17;10.65;;;3.60;84.30;;;;;;5013168;28;20151;-75
2022/04/09 05:52:57;;;;;;;19.73;11.10;;;3.60;84.30;;;;;;5011031;28;20484;-74
2022/04/09 05:55:23;;;;;;;20.02;10.18;;;3.70;84.30;;;;;;5014656;28;20033;-73
2022/04/09 05:57:49;;;;;;;20.70;11.32;;;3.70;84.20;;;;;;4998150;28;20034;-73
2022/04/09 06:00:16;;;;;;;21.23;11.57;;;3.70;84.20;;;;;;5008254;28;20034;-75
2022/04/09 06:02:42;;;;;;;23.00;11.50;;;3.80;84.10;;;;;;5017835;28;20389;-74
2022/04/09 06:05:08;;;;;;;18.58;10.60;;;3.80;84.00;;;;;;5013184;28;20049;-75
2022/04/09 06:07:34;;;;;;;24.55;10.38;;;3.90;83.90;;;;;;5017565;28;20033;-74
2022/04/09 06:10:00;;;;;;;19.40;9.50;;;3.90;83.80;;;;;;4997129;28;20304;-74
2022/04/09 06:12:26;;;;;;;22.60;9.48;;;4.00;83.80;;;;;;4999048;28;20443;-74
2022/04/09 06:14:52;;;;;;;22.38;10.20;;;4.00;83.70;;;;;;5015567;28;20606;-74
2022/04/09 06:17:17;;;;;;;20.17;10.45;;;4.10;83.70;;;;;;4999115;28;20548;-74
2022/04/09 06:19:47;;;;;;;22.30;10.70;;;4.10;83.50;;;;;;5014777;28;20033;-74
2022/04/09 06:22:12;;;;;;;27.02;13.50;;;4.20;83.20;;;;;;4999536;28;20449;-74
2022/04/09 06:24:38;;;;;;;25.98;13.27;;;4.20;83.20;;;;;;5017619;28;20083;-74
2022/04/09 06:27:04;;;;;;;22.90;12.57;;;4.30;83.10;;;;;;5012314;28;20404;-74
2022/04/09 06:29:29;;;;;;;28.58;12.73;;;4.40;83.10;;;;;;5009489;28;20465;-74
2022/04/09 06:31:55;;;;;;;28.83;17.20;;;4.50;82.90;;;;;;5008601;28;20044;-73
2022/04/09 06:34:21;;;;;;;25.13;11.63;;;4.60;82.70;;;;;;5016586;28;20095;-73
2022/04/09 06:36:46;;;;;;;28.23;12.00;;;4.60;82.50;;;;;;5015931;28;20025;-73
2022/04/09 06:39:12;;;;;;;23.27;12.20;;;4.60;82.30;;;;;;5017145;28;20569;-74
2022/04/09 06:41:38;;;;;;;19.00;9.73;;;4.70;82.10;;;;;;5018381;28;20079;-73
2022/04/09 06:44:05;;;;;;;27.02;11.40;;;4.80;82.10;;;;;;5016824;28;20374;-73
2022/04/09 06:46:31;;;;;;;24.73;11.15;;;4.90;81.80;;;;;;5016442;28;20468;-73
2022/04/09 06:48:57;;;;;;;25.52;11.35;;;5.00;81.70;;;;;;4999476;28;20034;-73
2022/04/09 06:51:22;;;;;;;19.15;10.60;;;5.10;81.70;;;;;;5018526;28;20022;-74
2022/04/09 06:53:48;;;;;;;23.40;10.25;;;5.20;81.60;;;;;;5017731;28;20564;-73
2022/04/09 06:56:14;;;;;;;19.17;9.95;;;5.40;81.40;;;;;;4999695;28;20041;-73
2022/04/09 06:58:40;;;;;;;27.27;10.73;;;5.40;81.20;;;;;;5016528;28;20561;-73
2022/04/09 07:01:06;;;;;;;22.73;9.43;;;5.60;80.70;;;;;;5012151;28;20030;-73
2022/04/09 07:03:31;;;;;;;28.02;9.55;;;5.70;80.90;;;;;;4996352;28;20088;-74
2022/04/09 07:05:57;;;;;;;20.75;9.60;;;5.90;80.20;;;;;;5013843;28;20555;-73
2022/04/09 07:08:23;;;;;;;20.58;9.40;;;6.10;80.10;;;;;;5006663;28;20034;-73
2022/04/09 07:10:48;;;;;;;21.13;9.57;;;6.20;79.60;;;;;;4998165;28;20117;-73
2022/04/09 07:13:14;;;;;;;16.33;7.45;;;6.40;79.60;;;;;;5005778;28;20108;-73
2022/04/09 07:15:40;;;;;;;18.23;6.50;;;6.60;78.90;;;;;;5009827;28;20124;-73
2022/04/09 07:18:06;;;;;;;19.65;5.97;;;6.60;78.30;;;;;;5006276;28;20415;-73
2022/04/09 07:20:35;;;;;;;19.52;6.00;;;6.70;77.80;;;;;;5004779;28;20332;-74
2022/04/09 07:23:02;;;;;;;17.65;5.50;;;6.80;77.60;;;;;;5003102;28;20478;-74
2022/04/09 07:25:31;;;;;;;15.30;5.75;;;7.00;77.60;;;;;;5012405;28;20037;-74
2022/04/09 07:27:57;;;;;;;14.00;5.35;;;7.10;77.10;;;;;;5005808;28;20073;-73
2022/04/09 07:30:24;;;;;;;15.02;6.10;;;7.20;76.90;;;;;;5004455;28;20236;-72
2022/04/09 07:32:50;;;;;;;17.60;5.80;;;7.30;76.60;;;;;;5005031;28;20398;-74
2022/04/09 07:35:16;;;;;;;13.18;5.55;;;7.60;76.80;;;;;;5004422;28;20037;-72
2022/04/09 07:37:47;;;;;;;16.42;6.53;;;7.60;76.70;;;;;;5004453;28;20132;-72
2022/04/09 07:40:14;;;;;;;16.85;5.75;;;7.80;76.00;;;;;;5001715;28;20061;-73
2022/04/09 07:42:41;;;;;;;13.65;5.07;;;7.90;76.10;;;;;;5007677;28;20120;-72
2022/04/09 07:45:07;;;;;;;13.35;6.60;;;7.90;75.60;;;;;;5008565;28;20547;-72
2022/04/09 07:47:33;;;;;;;14.90;5.28;;;8.00;75.70;;;;;;5003511;28;20038;-73
2022/04/09 07:50:02;;;;;;;14.63;5.93;;;7.90;75.20;;;;;;5009433;28;20108;-73
2022/04/09 07:52:28;;;;;;;12.30;5.10;;;8.10;75.60;;;;;;5005598;28;20050;-73
2022/04/09 07:54:57;;;;;;;11.95;5.35;;;8.40;74.70;;;;;;5007877;28;20429;-73
2022/04/09 07:57:26;;;;;;;10.60;5.20;;;8.40;74.90;;;;;;5002956;28;20048;-73
2022/04/09 07:59:55;;;;;;;11.38;5.30;;;8.60;74.30;;;;;;5003617;28;20037;-73
2022/04/09 08:02:24;;;;;;;16.65;5.55;;;8.60;74.10;;;;;;5007061;28;20692;-72
2022/04/09 08:04:50;;;;;;;14.68;5.70;;;8.60;74.20;;;;;;5007046;28;20587;-73
2022/04/09 08:07:16;;;;;;;16.30;6.47;;;8.70;73.70;;;;;;5007455;28;20374;-72
2022/04/09 08:09:45;;;;;;;13.60;5.85;;;8.60;74.30;;;;;;5007185;28;20046;-73
2022/04/09 08:12:15;;;;;;;13.85;5.38;;;8.60;73.50;;;;;;5011738;28;20446;-73
2022/04/09 08:14:44;;;;;;;13.40;5.85;;;8.60;74.30;;;;;;5009511;28;20061;-73
2022/04/09 08:17:10;;;;;;;14.70;6.00;;;8.70;73.70;;;;;;5011136;28;20029;-73
2022/04/09 08:19:36;;;;;;;11.85;5.53;;;8.60;73.30;;;;;;5019669;28;20029;-72
2022/04/09 08:22:06;;;;;;;11.30;5.60;;;8.90;74.10;;;;;;5031111;28;20057;-73
2022/04/09 08:24:32;;;;;;;10.98;5.97;;;9.00;72.70;;;;;;5029468;28;20037;-73
2022/04/09 08:26:58;;;;;;;14.27;6.68;;;9.10;72.20;;;;;;5019716;28;20049;-73
2022/04/09 08:29:24;;;;;;;12.25;6.80;;;9.30;72.00;;;;;;5012499;28;20046;-72
2022/04/09 08:31:51;;;;;;;14.57;6.47;;;9.30;71.10;;;;;;5014805;28;20088;-72
2022/04/09 08:34:20;;;;;;;14.20;7.20;;;9.20;71.40;;;;;;5013187;28;20560;-73
2022/04/09 08:36:46;;;;;;;12.05;6.03;;;9.20;70.80;;;;;;5012251;28;20038;-73
2022/04/09 08:39:12;;;;;;;13.48;6.88;;;9.20;69.70;;;;;;4993112;28;20903;-73
2022/04/09 08:41:44;;;;;;;12.32;6.22;;;9.20;69.60;;;;;;4998066;28;20116;-74
2022/04/09 08:44:10;;;;;;;11.13;6.13;;;9.20;69.10;;;;;;5011868;28;20249;-73
2022/04/09 08:46:38;;;;;;;13.40;6.55;;;9.50;69.90;;;;;;5013829;28;20130;-75
2022/04/09 08:49:06;;;;;;;13.45;6.97;;;9.70;69.60;;;;;;5013508;28;20029;-73
2022/04/09 08:51:32;;;;;;;12.25;6.50;;;9.90;69.30;;;;;;5009901;28;20087;-73
2022/04/09 08:54:00;;;;;;;14.63;6.20;;;10.10;68.50;;;;;;5013369;28;20092;-71
2022/04/09 08:56:26;;;;;;;12.95;6.18;;;10.40;67.40;;;;;;5015456;28;20038;-72
2022/04/09 08:58:52;;;;;;;11.27;6.10;;;10.90;65.70;;;;;;5012196;28;20091;-72
2022/04/09 09:01:21;;;;;;;14.05;5.65;;;10.80;64.00;;;;;;5011891;28;20160;-73
2022/04/09 09:03:47;;;;;;;10.50;5.88;;;10.70;63.70;;;;;;5015070;28;20041;-72
2022/04/09 09:06:27;;;;;;;14.75;6.93;;;10.80;64.90;;;;;;5007903;28;20065;-73
2022/04/09 09:08:55;;;;;;;17.00;6.45;;;10.10;65.10;;;;;;5014774;28;20099;-74
2022/04/09 09:11:21;;;;;;;13.98;6.07;;;9.80;66.10;;;;;;5019242;28;20042;-74
2022/04/09 09:13:52;;;;;;;12.63;6.90;;;9.60;66.30;;;;;;5015335;28;20038;-72
2022/04/09 09:16:31;;;;;;;12.25;6.70;;;9.80;66.60;;;;;;4994981;28;20045;-75
2022/04/09 09:19:04;;;;;;;14.07;6.90;;;9.70;66.20;;;;;;5005037;28;20050;-74
2022/04/09 09:21:30;;;;;;;11.23;5.90;;;9.70;67.40;;;;;;5014692;28;20440;-73
2022/04/09 09:24:11;;;;;;;15.00;7.22;;;9.70;66.20;;;;;;5011795;28;20042;-73
2022/04/09 09:26:40;;;;;;;14.07;6.72;;;10.20;65.80;;;;;;5012533;28;20026;-73
2022/04/09 09:29:12;;;;;;;13.85;7.68;;;10.30;63.60;;;;;;5000888;28;20030;-73
2022/04/09 09:31:46;;;;;;;13.40;6.80;;;10.00;62.60;;;;;;5022251;28;20676;-73
2022/04/09 09:34:16;;;;;;;13.80;7.10;;;10.00;63.30;;;;;;5017397;28;20052;-75
2022/04/09 09:36:46;;;;;;;12.82;7.03;;;10.20;61.90;;;;;;5018708;28;20040;-74
2022/04/09 09:39:14;;;;;;;12.82;8.18;;;10.60;62.00;;;;;;5018645;28;20037;-73
2022/04/09 09:41:46;;;;;;;14.75;7.47;;;11.00;61.90;;;;;;5010541;28;20384;-73
2022/04/09 09:44:12;;;;;;;13.82;7.72;;;10.70;59.90;;;;;;5016198;28;20099;-73
2022/04/09 09:46:38;;;;;;;13.98;7.32;;;10.50;61.30;;;;;;5012065;28;20041;-74
2022/04/09 09:49:04;;;;;;;11.82;8.02;;;10.10;61.30;;;;;;5013402;28;20162;-73
2022/04/09 09:51:29;;;;;;;12.48;8.70;;;10.00;62.90;;;;;;4998315;28;20519;-73
2022/04/09 09:54:13;;;;;;;12.23;7.43;;;10.30;62.60;;;;;;5017008;28;20030;-72
2022/04/09 09:56:43;;;;;;;12.00;6.85;;;10.60;62.20;;;;;;5016290;28;20044;-72
2022/04/09 09:59:14;;;;;;;11.40;6.55;;;10.80;59.50;;;;;;5013961;28;20484;-73
2022/04/09 10:01:44;;;;;;;10.70;6.38;;;10.90;58.50;;;;;;5018615;28;20038;-74
2022/04/09 10:04:12;;;;;;;8.13;5.15;;;10.80;58.50;;;;;;5013121;28;20049;-73
2022/04/09 10:06:39;;;;;;;9.77;5.30;;;10.50;57.90;;;;;;5000341;28;20121;-73
2022/04/09 10:09:06;;;;;;;10.82;5.55;;;10.30;58.30;;;;;;5016930;28;20676;-73
2022/04/09 10:11:42;;;;;;;10.80;5.05;;;10.70;56.80;;;;;;5015266;28;20495;-72
2022/04/09 10:14:12;;;;;;;11.15;5.85;;;11.20;57.40;;;;;;5010475;28;20043;-73
2022/04/09 10:16:38;;;;;;;10.50;5.30;;;10.90;57.10;;;;;;5015002;28;20037;-75
2022/04/09 10:19:05;;;;;;;10.20;4.93;;;10.40;58.30;;;;;;5017191;28;20149;-73
2022/04/09 10:21:38;;;;;;;9.20;4.70;;;10.40;58.20;;;;;;5018346;28;20057;-73
2022/04/09 10:24:10;;;;;;;9.43;3.55;;;10.30;58.40;;;;;;5017367;28;20053;-73
2022/04/09 10:26:36;;;;;;;10.15;4.72;;;10.20;56.20;;;;;;5013138;28;20040;-72
2022/04/09 10:29:10;;;;;;;13.30;4.80;;;10.10;57.90;;;;;;5016525;28;20390;-73
2022/04/09 10:31:40;;;;;;;10.13;4.72;;;10.10;58.60;;;;;;5017435;28;20128;-73
2022/04/09 10:34:10;;;;;;;12.45;3.47;;;10.10;56.00;;;;;;5015412;28;20041;-73
2022/04/09 10:36:45;;;;;;;7.78;3.60;;;10.60;54.60;;;;;;5012295;28;20056;-73
2022/04/09 10:39:22;;;;;;;8.13;3.42;;;10.60;56.50;;;;;;5016027;28;20071;-73
2022/04/09 10:41:51;;;;;;;7.85;3.40;;;10.20;54.40;;;;;;5010875;28;20044;-74
2022/04/09 10:44:52;;;;;;;9.48;3.70;;;10.00;54.30;;;;;;4995678;28;20088;-73
2022/04/09 10:47:18;;;;;;;9.70;3.85;;;10.40;56.60;;;;;;5017364;28;20564;-73
2022/04/09 10:50:02;;;;;;;9.95;3.75;;;10.70;55.60;;;;;;5017000;28;20067;-73
2022/04/09 10:52:32;;;;;;;7.67;3.60;;;10.70;53.50;;;;;;5006275;28;20034;-73
2022/04/09 10:55:10;;;;;;;7.43;2.47;;;11.30;54.10;;;;;;4993641;28;20041;-74
2022/04/09 10:57:47;;;;;;;7.90;3.33;;;11.40;49.70;;;;;;5016684;28;20097;-73
2022/04/09 11:00:22;;;;;;;8.77;3.42;;;11.50;50.40;;;;;;5012331;28;20550;-73
2022/04/09 11:03:10;;;;;;;7.78;3.40;;;11.10;53.20;;;;;;5008866;28;20388;-73
2022/04/09 11:05:39;;;;;;;7.40;3.10;;;10.60;54.20;;;;;;5012240;28;20061;-73
2022/04/09 11:08:05;;;;;;;10.75;4.15;;;11.00;52.30;;;;;;5010303;28;20037;-73
2022/04/09 11:10:31;;;;;;;8.38;3.15;;;11.50;51.60;;;;;;5012743;28;20176;-72
2022/04/09 11:12:57;;;;;;;8.55;3.42;;;11.80;49.20;;;;;;5015624;28;20124;-72
2022/04/09 11:15:23;;;;;;;7.97;3.30;;;11.50;49.50;;;;;;5014109;28;20064;-72
2022/04/09 11:17:50;;;;;;;8.63;3.50;;;11.80;50.00;;;;;;5017366;28;20028;-72
2022/04/09 11:20:23;;;;;;;6.20;3.45;;;11.40;48.60;;;;;;5016772;28;20045;-72
2022/04/09 11:22:56;;;;;;;8.07;2.90;;;11.70;50.40;;;;;;5016305;28;20516;-72
2022/04/09 11:25:27;;;;;;;6.90;2.85;;;11.70;46.90;;;;;;5006095;28;20037;-73
2022/04/09 11:28:04;;;;;;;8.50;2.92;;;11.60;46.90;;;;;;5016263;28;20051;-73
2022/04/09 11:30:29;;;;;;;8.25;3.20;;;12.00;48.10;;;;;;5005467;28;20098;-73
2022/04/09 11:32:55;;;;;;;7.80;3.10;;;12.40;46.50;;;;;;5010674;28;20041;-73
2022/04/09 11:35:24;;;;;;;7.18;3.42;;;12.10;47.10;;;;;;5012030;28;20381;-72
2022/04/09 11:37:52;;;;;;;6.47;3.30;;;12.10;48.50;;;;;;5007160;28;20069;-72
2022/04/09 11:40:20;;;;;;;7.68;2.47;;;12.50;44.30;;;;;;5017820;28;20029;-73
2022/04/09 11:42:50;;;;;;;6.50;3.03;;;12.60;44.40;;;;;;5020319;28;20049;-73
2022/04/09 11:45:27;;;;;;;8.38;2.72;;;12.70;44.50;;;;;;5019207;28;20452;-72
2022/04/09 11:48:00;;;;;;;7.07;3.40;;;12.70;47.00;;;;;;5014170;28;20045;-73
2022/04/09 11:50:31;;;;;;;5.88;2.10;;;12.90;45.60;;;;;;5016766;28;20063;-74
2022/04/09 11:53:08;;;;;;;6.25;2.78;;;12.40;42.40;;;;;;5015332;28;20033;-74
2022/04/09 11:55:33;;;;;;;6.78;3.25;;;12.40;44.20;;;;;;5019904;28;20047;-72
2022/04/09 11:57:59;;;;;;;6.78;2.50;;;12.30;45.90;;;;;;5021198;28;20424;-72
2022/04/09 12:00:30;;;;;;;6.90;2.78;;;12.50;44.70;;;;;;5019647;28;20041;-71
2022/04/09 12:03:02;;;;;;;6.07;2.58;;;12.60;43.30;;;;;;5019762;28;20107;-73
2022/04/09 12:05:37;;;;;;;7.35;2.85;;;12.50;42.30;;;;;;5017726;28;20629;-72
2022/04/09 12:08:04;;;;;;;;;;;12.60;45.40;;;;;;5020042;28;20397;-72
2022/04/09 12:10:30;;;;;;;5.38;2.28;;;12.60;45.60;;;;;;5020641;28;19970;-73
2022/04/09 12:13:01;;;;;;;5.55;2.35;;;12.70;44.30;;;;;;5020963;28;20532;-72
2022/04/09 12:15:32;;;;;;;3.53;1.67;;;12.80;44.70;;;;;;5018315;28;20118;-72
2022/04/09 12:17:59;;;;;;;6.85;2.45;;;12.60;40.20;;;;;;5020445;28;20095;-73
2022/04/09 12:20:39;;;;;;;6.30;2.70;;;12.20;42.50;;;;;;5021605;28;20049;-73
2022/04/09 12:23:05;;;;;;;8.90;3.45;;;12.10;43.60;;;;;;5019639;28;20045;-73
2022/04/09 12:25:39;;;;;;;5.80;1.83;;;11.90;42.70;;;;;;5017624;28;20037;-71
2022/04/09 12:28:17;;;;;;;7.05;2.25;;;12.20;42.30;;;;;;4999089;28;20045;-72
2022/04/09 12:30:45;;;;;;;4.95;2.20;;;12.50;42.20;;;;;;5020159;28;20069;-72
2022/04/09 12:33:12;;;;;;;8.32;2.97;;;12.60;40.40;;;;;;5017656;28;20575;-73
2022/04/09 12:35:38;;;;;;;7.25;2.30;;;12.70;42.30;;;;;;5017818;28;20048;-73
2022/04/09 12:38:04;;;;;;;6.68;2.60;;;12.80;43.70;;;;;;5018741;28;20046;-73
2022/04/09 12:40:32;;;;;;;5.63;2.42;;;12.70;42.00;;;;;;5001903;28;20143;-75
2022/04/09 12:42:59;;;;;;;5.00;1.90;;;12.80;42.20;;;;;;5002565;28;20695;-72
2022/04/09 12:45:25;;;;;;;5.00;2.00;;;12.70;42.40;;;;;;4995484;28;20052;-72
2022/04/09 12:47:58;;;;;;;6.57;2.67;;;11.80;42.60;;;;;;4994299;28;20065;-72